createdAt,value
2018-12-19T00:01:46.356Z,2.71
2018-12-19T00:04:14.745Z,2.69
2018-12-19T00:06:43.278Z,2.75
2018-12-19T00:09:11.673Z,2.80
2018-12-19T00:11:40.079Z,3.09
2018-12-19T00:14:08.464Z,3.37
2018-12-19T00:16:36.888Z,3.52
2018-12-19T00:19:05.390Z,3.60
2018-12-19T00:21:33.796Z,3.56
2018-12-19T00:24:02.209Z,3.46
2018-12-19T00:26:30.611Z,3.35
2018-12-19T00:28:59.039Z,3.32
2018-12-19T00:31:27.440Z,3.38
2018-12-19T00:33:56.153Z,3.22
2018-12-19T00:36:24.556Z,3.07
2018-12-19T00:38:52.983Z,2.92
2018-12-19T00:41:21.365Z,2.84
2018-12-19T00:43:49.770Z,2.78
2018-12-19T00:46:18.169Z,2.76
2018-12-19T00:48:46.582Z,2.83
2018-12-19T00:51:15.005Z,2.98
2018-12-19T00:53:43.418Z,3.13
2018-12-19T00:56:11.833Z,3.32
2018-12-19T00:58:40.222Z,3.40
2018-12-19T01:01:08.625Z,3.45
2018-12-19T01:03:37.561Z,3.51
2018-12-19T01:06:06.073Z,3.64
2018-12-19T01:08:34.461Z,3.63
2018-12-19T01:11:02.871Z,3.70
2018-12-19T01:13:31.269Z,3.71
2018-12-19T01:15:59.681Z,3.77
2018-12-19T01:18:28.081Z,3.84
2018-12-19T01:20:56.497Z,3.82
2018-12-19T01:23:24.892Z,3.85
2018-12-19T01:25:53.301Z,3.86
2018-12-19T01:28:21.700Z,3.78
2018-12-19T01:30:50.125Z,3.85
2018-12-19T01:33:18.525Z,3.79
2018-12-19T01:35:47.002Z,3.60
2018-12-19T01:38:15.449Z,3.59
2018-12-19T01:40:43.869Z,3.64
2018-12-19T01:43:12.269Z,3.67
2018-12-19T01:45:40.672Z,3.59
2018-12-19T01:48:09.101Z,3.46
2018-12-19T01:50:37.529Z,3.47
2018-12-19T01:53:05.916Z,3.54
2018-12-19T01:55:34.342Z,3.67
2018-12-19T01:58:02.748Z,3.67
2018-12-19T02:00:32.645Z,3.61
2018-12-19T02:03:01.653Z,3.58
2018-12-19T02:05:30.121Z,3.57
2018-12-19T02:07:58.501Z,3.59
2018-12-19T02:10:27.041Z,3.63
2018-12-19T02:12:55.437Z,3.65
2018-12-19T02:15:23.836Z,3.63
2018-12-19T02:17:52.318Z,3.47
2018-12-19T02:20:20.784Z,3.40
2018-12-19T02:22:49.176Z,3.24
2018-12-19T02:25:17.592Z,2.97
2018-12-19T02:27:45.984Z,2.82
2018-12-19T02:30:14.380Z,2.73
2018-12-19T02:32:42.791Z,2.67
2018-12-19T02:35:11.172Z,2.76
2018-12-19T02:37:39.554Z,2.74
2018-12-19T02:40:08.114Z,2.81
2018-12-19T02:42:36.513Z,2.84
2018-12-19T02:45:05.264Z,2.90
2018-12-19T02:47:33.673Z,2.81
2018-12-19T02:50:02.199Z,2.80
2018-12-19T02:52:30.715Z,2.90
2018-12-19T02:54:59.134Z,2.79
2018-12-19T02:57:27.518Z,2.85
2018-12-19T02:59:55.910Z,2.85
2018-12-19T03:02:24.317Z,2.90
2018-12-19T03:04:52.710Z,2.79
2018-12-19T03:07:21.096Z,2.75
2018-12-19T03:09:49.517Z,2.66
2018-12-19T03:12:17.906Z,2.71
2018-12-19T03:14:46.313Z,2.91
2018-12-19T03:17:14.736Z,2.90
2018-12-19T03:19:43.136Z,2.92
2018-12-19T03:22:11.529Z,2.92
2018-12-19T03:24:39.949Z,3.03
2018-12-19T03:27:08.345Z,3.02
2018-12-19T03:29:36.732Z,2.87
2018-12-19T03:32:05.177Z,2.54
2018-12-19T03:34:33.569Z,2.34
2018-12-19T03:37:01.961Z,2.24
2018-12-19T03:39:30.397Z,2.23
2018-12-19T03:41:58.781Z,2.17
2018-12-19T03:44:27.173Z,2.40
2018-12-19T03:46:55.598Z,2.59
2018-12-19T03:49:24.117Z,2.71
2018-12-19T03:51:52.654Z,2.83
2018-12-19T03:54:21.296Z,2.95
2018-12-19T03:56:50.023Z,2.93
2018-12-19T03:59:18.424Z,2.87
2018-12-19T04:01:46.845Z,2.92
2018-12-19T04:04:15.240Z,3.04
2018-12-19T04:06:43.651Z,3.04
2018-12-19T04:09:12.066Z,2.92
2018-12-19T04:11:40.465Z,2.77
2018-12-19T04:14:08.878Z,2.60
2018-12-19T04:16:37.280Z,2.48
2018-12-19T04:19:05.693Z,2.16
2018-12-19T04:21:34.081Z,2.04
2018-12-19T04:24:02.484Z,2.08
2018-12-19T04:26:30.876Z,2.33
2018-12-19T04:28:59.307Z,2.42
2018-12-19T04:31:27.713Z,2.37
2018-12-19T04:33:56.135Z,2.46
2018-12-19T04:36:24.528Z,2.49
2018-12-19T04:38:53.056Z,2.54
2018-12-19T04:41:21.449Z,2.52
2018-12-19T04:43:49.865Z,2.54
2018-12-19T04:46:18.249Z,2.54
2018-12-19T04:48:46.644Z,2.55
2018-12-19T04:51:15.053Z,2.72
2018-12-19T04:53:43.475Z,2.83
2018-12-19T04:56:11.887Z,2.91
2018-12-19T04:58:40.293Z,2.93
2018-12-19T05:01:08.685Z,3.05
2018-12-19T05:03:37.104Z,3.11
2018-12-19T05:06:05.501Z,3.08
2018-12-19T05:08:33.904Z,2.96
2018-12-19T05:11:02.289Z,2.86
2018-12-19T05:13:30.722Z,2.72
2018-12-19T05:15:59.115Z,2.57
2018-12-19T05:18:27.526Z,2.49
2018-12-19T05:20:55.954Z,2.48
2018-12-19T05:23:24.365Z,2.41
2018-12-19T05:25:52.782Z,2.51
2018-12-19T05:28:21.168Z,2.74
2018-12-19T05:30:49.557Z,2.80
2018-12-19T05:33:17.955Z,2.76
2018-12-19T05:35:46.332Z,2.76
2018-12-19T05:38:14.741Z,2.76
2018-12-19T05:40:43.121Z,2.74
2018-12-19T05:43:11.531Z,2.74
2018-12-19T05:45:39.945Z,2.75
2018-12-19T05:48:08.349Z,2.84
2018-12-19T05:50:36.957Z,3.04
2018-12-19T05:53:05.509Z,3.03
2018-12-19T05:55:33.897Z,3.24
2018-12-19T05:58:02.300Z,3.46
2018-12-19T06:00:30.682Z,3.39
2018-12-19T06:02:59.113Z,3.32
2018-12-19T06:05:27.518Z,3.23
2018-12-19T06:07:56.029Z,3.13
2018-12-19T06:10:26.318Z,3.09
2018-12-19T06:12:54.875Z,3.07
2018-12-19T06:15:23.265Z,3.00
2018-12-19T06:17:51.681Z,2.96
2018-12-19T06:20:20.208Z,2.87
2018-12-19T06:22:48.624Z,2.87
2018-12-19T06:25:17.027Z,2.85
2018-12-19T06:27:45.544Z,2.90
2018-12-19T06:30:14.376Z,2.93
2018-12-19T06:32:43.000Z,3.00
2018-12-19T06:35:11.397Z,2.99
2018-12-19T06:37:39.812Z,3.12
2018-12-19T06:40:08.660Z,3.17
2018-12-19T06:42:37.088Z,3.26
2018-12-19T06:45:07.196Z,3.27
2018-12-19T06:47:35.609Z,3.24
2018-12-19T06:50:04.472Z,3.24
2018-12-19T06:52:32.898Z,3.28
2018-12-19T06:55:01.285Z,3.25
2018-12-19T06:57:29.688Z,3.37
2018-12-19T06:59:58.089Z,3.46
2018-12-19T07:02:26.492Z,3.55
2018-12-19T07:04:54.900Z,3.60
2018-12-19T07:07:23.316Z,3.66
2018-12-19T07:09:51.713Z,3.75
2018-12-19T07:12:20.155Z,3.77
2018-12-19T07:14:48.592Z,3.71
2018-12-19T07:17:17.083Z,3.74
2018-12-19T07:19:47.645Z,3.72
2018-12-19T07:22:17.213Z,3.66
2018-12-19T07:24:45.605Z,3.56
2018-12-19T07:27:14.084Z,3.47
2018-12-19T07:29:42.517Z,3.37
2018-12-19T07:32:10.924Z,3.29
2018-12-19T07:34:44.199Z,3.26
2018-12-19T07:37:09.912Z,3.23
2018-12-19T07:39:38.299Z,3.19
2018-12-19T07:42:06.765Z,3.15
2018-12-19T07:44:35.348Z,3.17
2018-12-19T07:47:03.762Z,3.11
2018-12-19T07:49:32.157Z,3.13
2018-12-19T07:52:00.597Z,3.08
2018-12-19T07:54:29.010Z,3.07
2018-12-19T07:56:58.059Z,3.10
2018-12-19T07:59:26.529Z,3.24
2018-12-19T08:01:54.953Z,3.42
2018-12-19T08:04:23.415Z,3.57
2018-12-19T08:06:52.505Z,3.77
2018-12-19T08:09:21.309Z,3.91
2018-12-19T08:11:49.705Z,3.97
2018-12-19T08:14:18.197Z,4.00
2018-12-19T08:16:46.598Z,4.03
2018-12-19T08:19:15.015Z,4.03
2018-12-19T08:21:43.425Z,4.06
2018-12-19T08:24:11.972Z,4.17
2018-12-19T08:26:40.385Z,4.28
2018-12-19T08:29:08.801Z,4.30
2018-12-19T08:31:37.274Z,4.25
2018-12-19T08:34:06.308Z,4.27
2018-12-19T08:36:34.705Z,4.31
2018-12-19T08:39:05.404Z,4.41
2018-12-19T08:41:33.784Z,4.43
2018-12-19T08:44:02.194Z,4.42
2018-12-19T08:46:30.588Z,4.39
2018-12-19T08:48:58.986Z,4.42
2018-12-19T08:51:27.370Z,4.51
2018-12-19T08:53:55.787Z,4.60
2018-12-19T08:56:24.166Z,4.66
2018-12-19T08:58:52.596Z,4.70
2018-12-19T09:01:20.982Z,4.80
2018-12-19T09:03:49.401Z,4.86
2018-12-19T09:06:18.344Z,5.02
2018-12-19T09:08:46.751Z,5.06
2018-12-19T09:11:15.240Z,5.14
2018-12-19T09:13:43.776Z,5.32
2018-12-19T09:16:12.158Z,5.37
2018-12-19T09:18:40.564Z,5.35
2018-12-19T09:21:08.949Z,5.29
2018-12-19T09:23:37.340Z,5.33
2018-12-19T09:26:05.737Z,5.40
2018-12-19T09:28:34.148Z,5.50
2018-12-19T09:31:02.520Z,5.53
2018-12-19T09:33:30.929Z,5.63
2018-12-19T09:35:59.313Z,5.66
2018-12-19T09:38:27.709Z,5.57
2018-12-19T09:40:56.092Z,5.46
2018-12-19T09:43:24.492Z,5.50
2018-12-19T09:45:52.880Z,5.67
2018-12-19T09:48:21.285Z,5.77
2018-12-19T09:50:49.682Z,5.83
2018-12-19T09:53:18.604Z,5.77
2018-12-19T09:55:49.034Z,5.74
2018-12-19T09:58:17.449Z,5.68
2018-12-19T10:00:45.832Z,5.58
2018-12-19T10:03:14.229Z,5.56
2018-12-19T10:05:42.714Z,5.51
2018-12-19T10:08:11.213Z,5.56
2018-12-19T10:10:39.605Z,5.60
2018-12-19T10:13:08.010Z,5.69
2018-12-19T10:15:36.381Z,5.80
2018-12-19T10:18:04.943Z,5.87
2018-12-19T10:20:33.381Z,5.97
2018-12-19T10:23:01.788Z,6.05
2018-12-19T10:25:30.216Z,6.13
2018-12-19T10:27:58.748Z,6.26
2018-12-19T10:30:27.194Z,6.39
2018-12-19T10:32:55.625Z,6.48
2018-12-19T10:35:25.169Z,6.50
2018-12-19T10:37:53.586Z,6.44
2018-12-19T10:40:22.005Z,6.40
2018-12-19T10:42:50.429Z,6.45
2018-12-19T10:45:18.850Z,6.50
2018-12-19T10:47:47.331Z,6.46
2018-12-19T10:50:15.792Z,6.44
2018-12-19T10:52:44.212Z,6.29
2018-12-19T10:55:12.648Z,6.19
2018-12-19T10:57:41.152Z,6.25
2018-12-19T11:00:17.929Z,6.32
2018-12-19T11:02:46.612Z,6.35
2018-12-19T11:05:15.025Z,6.29
2018-12-19T11:07:43.401Z,6.35
2018-12-19T11:10:11.800Z,6.37
2018-12-19T11:12:40.186Z,6.35
2018-12-19T11:15:10.456Z,6.33
2018-12-19T11:17:39.126Z,6.35
2018-12-19T11:20:09.886Z,6.37
2018-12-19T11:22:38.380Z,6.36
2018-12-19T11:25:07.358Z,6.31
2018-12-19T11:27:35.745Z,6.31
2018-12-19T11:30:05.343Z,6.35
2018-12-19T11:32:33.756Z,6.41
2018-12-19T11:35:02.192Z,6.38
2018-12-19T11:37:30.608Z,6.42
2018-12-19T11:39:59.132Z,6.45
2018-12-19T11:42:27.664Z,6.48
2018-12-19T11:44:56.857Z,6.50
2018-12-19T11:47:25.673Z,6.57
2018-12-19T11:49:54.095Z,6.58
2018-12-19T11:52:22.488Z,6.57
2018-12-19T11:54:50.890Z,6.63
2018-12-19T11:57:19.421Z,6.76
2018-12-19T11:59:47.817Z,6.85
2018-12-19T12:02:16.305Z,6.96
2018-12-19T12:04:44.765Z,6.95
2018-12-19T12:07:13.383Z,7.04
2018-12-19T12:09:41.872Z,7.15
2018-12-19T12:12:10.441Z,7.16
2018-12-19T12:14:38.973Z,7.21
2018-12-19T12:17:08.797Z,7.23
2018-12-19T12:19:37.382Z,7.25
2018-12-19T12:22:05.992Z,7.30
2018-12-19T12:24:34.485Z,7.33
2018-12-19T12:27:02.881Z,7.36
2018-12-19T12:29:31.289Z,7.37
2018-12-19T12:31:59.670Z,7.40
2018-12-19T12:34:28.089Z,7.39
2018-12-19T12:36:56.476Z,7.37
2018-12-19T12:39:24.920Z,7.43
2018-12-19T12:41:53.649Z,7.38
2018-12-19T12:44:22.074Z,7.35
2018-12-19T12:46:50.493Z,7.36
2018-12-19T12:49:18.909Z,7.37
2018-12-19T12:51:47.288Z,7.34
2018-12-19T12:54:15.689Z,7.38
2018-12-19T12:56:44.101Z,7.40
2018-12-19T12:59:12.611Z,7.46
2018-12-19T13:01:40.985Z,7.46
2018-12-19T13:04:09.395Z,7.44
2018-12-19T13:06:37.772Z,7.49
2018-12-19T13:09:10.889Z,7.51
2018-12-19T13:11:39.396Z,7.50
2018-12-19T13:14:07.861Z,7.53
2018-12-19T13:16:36.272Z,7.55
2018-12-19T13:19:04.685Z,7.53
2018-12-19T13:21:33.392Z,7.51
2018-12-19T13:24:02.856Z,7.46
2018-12-19T13:26:31.245Z,7.45
2018-12-19T13:28:59.644Z,7.50
2018-12-19T13:31:28.036Z,7.43
2018-12-19T13:33:56.461Z,7.41
2018-12-19T13:36:24.843Z,7.41
2018-12-19T13:38:54.334Z,7.46
2018-12-19T13:41:22.780Z,7.50
2018-12-19T13:43:51.192Z,7.58
2018-12-19T13:46:19.574Z,7.56
2018-12-19T13:48:47.972Z,7.60
2018-12-19T13:51:16.473Z,7.55
2018-12-19T13:53:44.894Z,7.58
2018-12-19T13:56:13.392Z,7.53
2018-12-19T13:58:42.244Z,7.53
2018-12-19T14:01:10.651Z,7.51
2018-12-19T14:03:39.144Z,7.53
2018-12-19T14:06:07.536Z,7.56
2018-12-19T14:08:35.970Z,7.54
2018-12-19T14:11:04.485Z,7.54
2018-12-19T14:13:32.888Z,7.57
2018-12-19T14:16:01.272Z,7.56
2018-12-19T14:18:29.673Z,7.52
2018-12-19T14:20:58.072Z,7.57
2018-12-19T14:23:26.672Z,7.53
2018-12-19T14:25:55.057Z,7.53
2018-12-19T14:28:23.469Z,7.52
2018-12-19T14:30:51.966Z,7.50
2018-12-19T14:33:20.368Z,7.48
2018-12-19T14:35:48.972Z,7.52
2018-12-19T14:38:17.387Z,7.49
2018-12-19T14:40:45.800Z,7.44
2018-12-19T14:43:14.333Z,7.36
2018-12-19T14:45:42.864Z,7.28
2018-12-19T14:48:11.265Z,7.27
2018-12-19T14:50:39.736Z,7.28
2018-12-19T14:53:08.160Z,7.29
2018-12-19T14:55:36.561Z,7.29
2018-12-19T14:58:05.125Z,7.21
2018-12-19T15:00:33.753Z,7.10
2018-12-19T15:03:02.159Z,7.04
2018-12-19T15:05:31.533Z,7.02
2018-12-19T15:07:59.939Z,6.81
2018-12-19T15:10:28.398Z,6.79
2018-12-19T15:12:56.921Z,6.74
2018-12-19T15:15:25.359Z,6.77
2018-12-19T15:17:53.753Z,6.87
2018-12-19T15:20:22.136Z,6.97
2018-12-19T15:22:50.667Z,7.05
2018-12-19T15:25:19.176Z,7.11
2018-12-19T15:27:47.589Z,7.10
2018-12-19T15:30:16.009Z,7.18
2018-12-19T15:32:44.551Z,7.24
2018-12-19T15:35:13.152Z,7.30
2018-12-19T15:37:41.542Z,7.32
2018-12-19T15:40:10.160Z,7.33
2018-12-19T15:42:38.536Z,7.37
2018-12-19T15:45:07.150Z,7.42
2018-12-19T15:47:35.527Z,7.42
2018-12-19T15:50:04.716Z,7.45
2018-12-19T15:52:33.094Z,7.52
2018-12-19T15:55:01.492Z,7.57
2018-12-19T15:57:29.881Z,7.62
2018-12-19T15:59:58.272Z,7.65
2018-12-19T16:02:26.672Z,7.69
2018-12-19T16:04:55.077Z,7.67
2018-12-19T16:07:23.464Z,7.69
2018-12-19T16:09:51.856Z,7.71
2018-12-19T16:12:20.245Z,7.67
2018-12-19T16:14:48.681Z,7.65
2018-12-19T16:17:17.065Z,7.63
2018-12-19T16:19:45.461Z,7.61
2018-12-19T16:22:13.840Z,7.57
2018-12-19T16:24:42.274Z,7.59
2018-12-19T16:27:10.656Z,7.59
2018-12-19T16:29:39.060Z,7.56
2018-12-19T16:32:07.469Z,7.47
2018-12-19T16:34:35.877Z,7.43
2018-12-19T16:37:04.302Z,7.39
2018-12-19T16:39:32.816Z,7.38
2018-12-19T16:42:01.192Z,7.41
2018-12-19T16:44:29.611Z,7.36
2018-12-19T16:46:58.000Z,7.34
2018-12-19T16:49:26.436Z,7.34
2018-12-19T16:51:54.829Z,7.31
2018-12-19T16:54:23.317Z,7.36
2018-12-19T16:56:51.736Z,7.30
2018-12-19T16:59:20.177Z,7.31
2018-12-19T17:01:48.809Z,7.24
2018-12-19T17:04:17.277Z,7.14
2018-12-19T17:06:45.659Z,7.01
2018-12-19T17:09:14.090Z,6.97
2018-12-19T17:11:42.472Z,6.91
2018-12-19T17:14:10.866Z,6.98
2018-12-19T17:16:40.348Z,6.99
2018-12-19T17:19:09.797Z,7.05
2018-12-19T17:21:38.648Z,7.07
2018-12-19T17:24:07.052Z,7.10
2018-12-19T17:26:35.497Z,7.12
2018-12-19T17:29:04.004Z,7.17
2018-12-19T17:31:32.408Z,7.12
2018-12-19T17:34:00.900Z,7.13
2018-12-19T17:36:29.345Z,7.16
2018-12-19T17:38:57.754Z,7.16
2018-12-19T17:41:26.179Z,7.07
2018-12-19T17:43:54.570Z,6.91
2018-12-19T17:46:23.193Z,6.90
2018-12-19T17:48:51.729Z,6.99
2018-12-19T17:51:20.137Z,7.07
2018-12-19T17:53:48.528Z,7.09
2018-12-19T17:56:16.965Z,7.12
2018-12-19T17:58:45.345Z,7.15
2018-12-19T18:01:13.812Z,7.30
2018-12-19T18:03:42.215Z,7.32
2018-12-19T18:06:10.695Z,7.31
2018-12-19T18:08:40.426Z,7.28
2018-12-19T18:11:08.854Z,7.30
2018-12-19T18:13:37.249Z,7.28
2018-12-19T18:16:05.734Z,7.26
2018-12-19T18:18:34.248Z,7.26
2018-12-19T18:21:02.706Z,7.17
2018-12-19T18:23:31.099Z,7.13
2018-12-19T18:25:59.622Z,7.10
2018-12-19T18:28:28.013Z,7.04
2018-12-19T18:30:56.644Z,7.08
2018-12-19T18:33:25.076Z,7.05
2018-12-19T18:35:53.472Z,7.05
2018-12-19T18:38:21.907Z,6.91
2018-12-19T18:42:20.480Z,6.92
2018-12-19T18:44:49.025Z,6.78
2018-12-19T18:47:18.622Z,6.80
2018-12-19T18:49:47.024Z,6.76
2018-12-19T18:52:15.519Z,6.78
2018-12-19T18:54:44.048Z,6.69
2018-12-19T18:57:13.299Z,6.67
2018-12-19T18:59:41.952Z,6.66
2018-12-19T19:02:10.399Z,6.65
2018-12-19T19:04:38.940Z,6.61
2018-12-19T19:07:07.421Z,6.63
2018-12-19T19:09:36.109Z,6.61
2018-12-19T19:12:04.518Z,6.66
2018-12-19T19:14:33.020Z,6.65
2018-12-19T19:17:01.404Z,6.66
2018-12-19T19:19:29.932Z,6.64
2018-12-19T19:21:58.351Z,6.65
2018-12-19T19:24:26.775Z,6.74
2018-12-19T19:26:55.200Z,6.86
2018-12-19T19:29:23.651Z,6.83
2018-12-19T19:31:52.157Z,6.85
2018-12-19T19:34:25.052Z,6.86
2018-12-19T19:36:51.133Z,6.89
2018-12-19T19:39:19.558Z,6.90
2018-12-19T19:41:48.024Z,6.91
2018-12-19T19:44:16.477Z,6.89
2018-12-19T19:46:45.588Z,6.87
2018-12-19T19:49:14.229Z,6.87
2018-12-19T19:51:42.617Z,6.81
2018-12-19T19:54:11.107Z,6.71
2018-12-19T19:56:39.588Z,6.62
2018-12-19T19:59:08.021Z,6.61
2018-12-19T20:01:36.696Z,6.64
2018-12-19T20:04:05.497Z,6.76
2018-12-19T20:06:34.066Z,6.85
2018-12-19T20:09:02.524Z,6.87
2018-12-19T20:11:31.014Z,6.85
2018-12-19T20:13:59.520Z,6.82
2018-12-19T20:16:27.904Z,6.81
2018-12-19T20:18:56.313Z,6.63
2018-12-19T20:21:24.692Z,6.57
2018-12-19T20:23:53.105Z,6.62
2018-12-19T20:26:21.501Z,6.57
2018-12-19T20:28:49.901Z,6.46
2018-12-19T20:31:18.407Z,6.41
2018-12-19T20:33:46.868Z,6.01
2018-12-19T20:36:16.345Z,6.15
2018-12-19T20:38:44.745Z,6.30
2018-12-19T20:41:13.169Z,6.34
2018-12-19T20:43:41.601Z,6.40
2018-12-19T20:46:10.016Z,6.31
2018-12-19T20:48:38.467Z,6.24
2018-12-19T20:51:07.126Z,6.25
2018-12-19T20:53:35.531Z,6.31
2018-12-19T20:56:04.181Z,6.24
2018-12-19T20:58:32.685Z,6.18
2018-12-19T21:01:01.336Z,6.13
2018-12-19T21:03:29.772Z,6.00
2018-12-19T21:05:58.220Z,6.03
2018-12-19T21:08:26.744Z,5.95
2018-12-19T21:10:55.179Z,5.97
2018-12-19T21:13:23.567Z,5.81
2018-12-19T21:15:52.275Z,5.84
2018-12-19T21:18:25.905Z,5.90
2018-12-19T21:20:54.321Z,5.99
2018-12-19T21:23:22.733Z,6.03
2018-12-19T21:25:51.140Z,5.87
2018-12-19T21:28:20.188Z,5.72
2018-12-19T21:30:48.613Z,5.64
2018-12-19T21:33:17.146Z,5.59
2018-12-19T21:35:45.590Z,5.53
2018-12-19T21:38:14.116Z,5.47
2018-12-19T21:40:42.620Z,5.57
2018-12-19T21:43:11.445Z,5.42
2018-12-19T21:45:39.952Z,5.21
2018-12-19T21:48:08.417Z,5.21
2018-12-19T21:50:37.144Z,5.01
2018-12-19T21:53:05.639Z,5.11
2018-12-19T21:55:34.125Z,5.12
2018-12-19T21:58:02.848Z,5.30
2018-12-19T22:00:37.614Z,5.44
2018-12-19T22:03:07.317Z,5.35
2018-12-19T22:05:37.947Z,5.31
2018-12-19T22:08:06.496Z,5.13
2018-12-19T22:10:35.277Z,5.27
2018-12-19T22:13:04.034Z,5.22
2018-12-19T22:15:32.632Z,5.20
2018-12-19T22:18:06.514Z,5.25
2018-12-19T22:20:35.577Z,5.17
2018-12-19T22:23:05.478Z,5.33
2018-12-19T22:25:34.069Z,5.33
2018-12-19T22:28:02.560Z,5.23
2018-12-19T22:30:33.042Z,5.28
2018-12-19T22:33:01.553Z,5.30
2018-12-19T22:35:30.534Z,5.38
2018-12-19T22:37:59.152Z,5.38
2018-12-19T22:40:27.726Z,5.42
2018-12-19T22:42:56.371Z,5.33
2018-12-19T22:45:24.911Z,5.31
2018-12-19T22:47:53.457Z,5.19
2018-12-19T22:50:22.101Z,5.08
2018-12-19T22:52:50.639Z,5.09
2018-12-19T22:55:19.053Z,5.09
2018-12-19T22:57:47.535Z,5.19
2018-12-19T23:00:17.184Z,5.13
2018-12-19T23:02:51.531Z,5.22
2018-12-19T23:05:25.487Z,5.24
2018-12-19T23:07:54.043Z,5.33
2018-12-19T23:10:22.537Z,5.36
2018-12-19T23:12:51.049Z,5.29
2018-12-19T23:15:20.277Z,5.39
2018-12-19T23:17:48.868Z,5.52
2018-12-19T23:20:17.617Z,5.63
2018-12-19T23:22:46.147Z,5.72
2018-12-19T23:25:14.849Z,5.61
2018-12-19T23:27:43.377Z,5.65
2018-12-19T23:30:12.038Z,5.48
2018-12-19T23:32:40.488Z,5.50
2018-12-19T23:35:09.179Z,5.52
2018-12-19T23:37:37.827Z,5.52
2018-12-19T23:40:06.584Z,5.55
2018-12-19T23:42:35.182Z,5.65
2018-12-19T23:45:04.803Z,5.81
2018-12-19T23:47:35.939Z,5.66
2018-12-19T23:50:06.181Z,5.61
2018-12-19T23:52:34.787Z,5.64
2018-12-19T23:55:04.263Z,5.66
2018-12-19T23:57:33.955Z,5.75
